Time,TemperatureF,DewpointF,PressureIn,WindDirection,WindDirectionDegrees,WindSpeedMPH,WindSpeedGustMPH,Humidity,HourlyPrecipIn,Conditions,Clouds,dailyrainin,SoftwareType,DateUTC
2013-02-16 00:00:00,28.6,27.2,29.91,West,270,0.0,0.0,95,0.00,,,0.00,WUHU21623XXSP,2013-02-16 05:00:00,
2013-02-16 00:05:00,28.6,27.2,29.91,West,270,0.0,0.0,95,0.00,,,0.00,WUHU21623XXSP,2013-02-16 05:05:00,
2013-02-16 00:10:00,28.6,27.2,29.91,West,270,0.0,0.0,95,0.00,,,0.00,WUHU21623XXSP,2013-02-16 05:10:00,
2013-02-16 00:15:00,28.6,27.2,29.91,West,270,0.0,0.0,95,0.00,,,0.00,WUHU21623XXSP,2013-02-16 05:15:00,
2013-02-16 00:20:00,28.6,27.2,29.91,West,270,0.0,0.0,95,0.00,,,0.00,WUHU21623XXSP,2013-02-16 05:20:00,
2013-02-16 00:23:00,28.4,27.0,29.91,West,270,0.0,0.0,95,0.00,,,0.00,WUHU21623XXSP,2013-02-16 05:23:00,
2013-02-16 00:28:00,28.4,27.4,29.91,West,270,0.0,0.0,96,0.00,,,0.00,WUHU21623XXSP,2013-02-16 05:28:00,
2013-02-16 00:33:00,28.4,27.4,29.92,West,270,0.0,0.0,96,0.00,,,0.00,WUHU21623XXSP,2013-02-16 05:33:00,
2013-02-16 00:38:00,28.4,27.4,29.91,West,270,0.0,0.0,96,0.00,,,0.00,WUHU21623XXSP,2013-02-16 05:38:00,
2013-02-16 00:43:00,28.6,27.6,29.91,West,270,0.0,0.0,96,0.00,,,0.00,WUHU21623XXSP,2013-02-16 05:43:00,
2013-02-16 00:48:00,28.4,27.4,29.91,West,270,0.0,0.0,96,0.00,,,0.00,WUHU21623XXSP,2013-02-16 05:48:00,
2013-02-16 00:53:00,28.6,27.6,29.92,West,270,0.0,0.0,96,0.00,,,0.00,WUHU21623XXSP,2013-02-16 05:53:00,
2013-02-16 00:58:00,28.6,27.6,29.92,West,270,0.0,0.0,96,0.00,,,0.00,WUHU21623XXSP,2013-02-16 05:58:00,
2013-02-16 01:03:00,28.6,27.6,29.93,West,270,0.0,0.0,96,0.00,,,0.00,WUHU21623XXSP,2013-02-16 06:03:00,
2013-02-16 01:08:00,28.6,28.0,29.92,West,270,0.0,0.0,98,0.00,,,0.00,WUHU21623XXSP,2013-02-16 06:08:00,
2013-02-16 01:13:00,28.8,28.2,29.92,West,270,0.0,0.0,98,0.00,,,0.00,WUHU21623XXSP,2013-02-16 06:13:00,
2013-02-16 01:18:00,28.8,28.2,29.91,West,270,0.0,0.0,98,0.00,,,0.00,WUHU21623XXSP,2013-02-16 06:18:00,
2013-02-16 01:23:00,28.8,28.2,29.92,West,270,0.0,0.0,98,0.00,,,0.00,WUHU21623XXSP,2013-02-16 06:23:00,
2013-02-16 01:28:00,28.8,28.2,29.92,West,270,0.0,0.0,98,0.00,,,0.00,WUHU21623XXSP,2013-02-16 06:28:00,
2013-02-16 01:33:00,28.8,28.2,29.92,West,270,0.0,0.0,98,0.00,,,0.00,WUHU21623XXSP,2013-02-16 06:33:00,
2013-02-16 01:38:00,28.8,28.2,29.93,West,270,0.0,0.0,98,0.00,,,0.00,WUHU21623XXSP,2013-02-16 06:38:00,
2013-02-16 01:43:00,28.8,28.2,29.93,West,270,0.0,0.0,98,0.00,,,0.00,WUHU21623XXSP,2013-02-16 06:43:00,
2013-02-16 01:48:00,28.9,28.3,29.93,West,270,0.0,0.0,98,0.00,,,0.00,WUHU21623XXSP,2013-02-16 06:48:00,
2013-02-16 01:53:00,28.9,28.3,29.93,West,270,0.0,0.0,98,0.00,,,0.00,WUHU21623XXSP,2013-02-16 06:53:00,
2013-02-16 01:58:00,29.1,28.5,29.94,West,270,0.0,0.0,98,0.00,,,0.00,WUHU21623XXSP,2013-02-16 06:58:00,
2013-02-16 02:03:00,28.9,28.3,29.93,West,270,0.0,0.0,98,0.00,,,0.00,WUHU21623XXSP,2013-02-16 07:03:00,
2013-02-16 02:08:00,29.1,28.5,29.92,West,270,0.0,0.0,98,0.00,,,0.00,WUHU21623XXSP,2013-02-16 07:08:00,
2013-02-16 02:13:00,29.1,28.5,29.93,West,270,0.0,0.0,98,0.00,,,0.00,WUHU21623XXSP,2013-02-16 07:13:00,
2013-02-16 02:18:00,29.3,28.7,29.93,West,270,3.9,4.6,98,0.00,,,0.00,WUHU21623XXSP,2013-02-16 07:18:00,
2013-02-16 02:23:00,29.7,29.1,29.93,West,270,0.0,4.6,98,0.00,,,0.00,WUHU21623XXSP,2013-02-16 07:23:00,
2013-02-16 02:28:00,30.0,29.0,29.93,West,270,0.0,4.0,96,0.00,,,0.00,WUHU21623XXSP,2013-02-16 07:28:00,
2013-02-16 02:34:00,30.4,29.4,29.93,West,270,2.8,5.4,96,0.00,,,0.00,WUHU21623XXSP,2013-02-16 07:34:00,
2013-02-16 02:39:00,30.9,29.5,29.93,WSW,247,4.0,7.3,95,0.00,,,0.00,WUHU21623XXSP,2013-02-16 07:39:00,
2013-02-16 02:44:00,31.1,29.7,29.93,SSW,202,3.6,7.3,95,0.00,,,0.00,WUHU21623XXSP,2013-02-16 07:44:00,
2013-02-16 02:49:00,31.5,29.7,29.92,WSW,247,0.0,7.2,93,0.00,,,0.00,WUHU21623XXSP,2013-02-16 07:49:00,
2013-02-16 02:54:00,31.3,29.5,29.92,WSW,247,0.0,7.2,93,0.00,,,0.00,WUHU21623XXSP,2013-02-16 07:54:00,
2013-02-16 02:59:00,31.5,29.3,29.92,WSW,247,0.0,4.8,92,0.00,,,0.00,WUHU21623XXSP,2013-02-16 07:59:00,
2013-02-16 03:04:00,31.3,29.1,29.92,WSW,247,0.0,0.0,92,0.00,,,0.00,WUHU21623XXSP,2013-02-16 08:04:00,
2013-02-16 03:09:00,31.1,28.9,29.92,WSW,247,0.0,0.0,92,0.00,,,0.00,WUHU21623XXSP,2013-02-16 08:09:00,
2013-02-16 03:14:00,31.1,28.9,29.93,WSW,247,0.0,0.0,92,0.00,,,0.00,WUHU21623XXSP,2013-02-16 08:14:00,
2013-02-16 03:19:00,31.1,28.9,29.93,WSW,247,0.0,0.0,92,0.00,,,0.00,WUHU21623XXSP,2013-02-16 08:19:00,
2013-02-16 03:24:00,31.1,28.9,29.92,WSW,247,0.0,0.0,92,0.00,,,0.00,WUHU21623XXSP,2013-02-16 08:24:00,
2013-02-16 03:29:00,31.1,28.9,29.92,WSW,247,0.0,0.0,92,0.00,,,0.00,WUHU21623XXSP,2013-02-16 08:29:00,
2013-02-16 03:34:00,30.9,28.7,29.92,WSW,247,0.0,0.0,92,0.00,,,0.00,WUHU21623XXSP,2013-02-16 08:34:00,
2013-02-16 03:39:00,30.9,28.7,29.92,WSW,247,0.0,0.0,92,0.00,,,0.00,WUHU21623XXSP,2013-02-16 08:39:00,
2013-02-16 03:44:00,30.9,29.1,29.92,WSW,247,0.0,0.0,93,0.00,,,0.00,WUHU21623XXSP,2013-02-16 08:44:00,
2013-02-16 03:49:00,30.7,28.9,29.91,WSW,247,0.0,0.0,93,0.00,,,0.00,WUHU21623XXSP,2013-02-16 08:49:00,
2013-02-16 03:54:00,30.6,28.8,29.91,WSW,247,0.0,0.0,93,0.00,,,0.00,WUHU21623XXSP,2013-02-16 08:54:00,
2013-02-16 03:59:00,30.6,28.8,29.91,WSW,247,0.0,0.0,93,0.00,,,0.00,WUHU21623XXSP,2013-02-16 08:59:00,
2013-02-16 04:04:00,30.6,28.8,29.91,WSW,247,0.0,0.0,93,0.00,,,0.00,WUHU21623XXSP,2013-02-16 09:04:00,
2013-02-16 04:09:00,30.6,28.8,29.92,WSW,247,0.0,0.0,93,0.00,,,0.00,WUHU21623XXSP,2013-02-16 09:09:00,
2013-02-16 04:14:00,30.6,28.8,29.91,WSW,247,0.0,0.0,93,0.00,,,0.00,WUHU21623XXSP,2013-02-16 09:14:00,
2013-02-16 04:19:00,30.4,29.0,29.91,WSW,247,0.0,0.0,95,0.00,,,0.00,WUHU21623XXSP,2013-02-16 09:19:00,
2013-02-16 04:24:00,30.4,29.0,29.92,WSW,247,0.0,0.0,95,0.00,,,0.00,WUHU21623XXSP,2013-02-16 09:24:00,
2013-02-16 04:29:00,30.4,29.0,29.93,WSW,247,0.0,0.0,95,0.00,,,0.00,WUHU21623XXSP,2013-02-16 09:29:00,
2013-02-16 04:34:00,30.4,29.0,29.92,WSW,247,0.0,0.0,95,0.00,,,0.00,WUHU21623XXSP,2013-02-16 09:34:00,
2013-02-16 04:39:00,30.2,29.2,29.93,WSW,247,0.0,0.0,96,0.00,,,0.00,WUHU21623XXSP,2013-02-16 09:39:00,
2013-02-16 04:44:00,30.4,29.4,29.92,WSW,247,0.0,0.0,96,0.00,,,0.00,WUHU21623XXSP,2013-02-16 09:44:00,
2013-02-16 04:50:00,30.2,29.2,29.92,WSW,247,0.0,0.0,96,0.00,,,0.00,WUHU21623XXSP,2013-02-16 09:50:00,
2013-02-16 04:55:00,30.2,29.2,29.92,WSW,247,0.0,0.0,96,0.00,,,0.00,WUHU21623XXSP,2013-02-16 09:55:00,
2013-02-16 05:00:00,30.2,29.2,29.92,WSW,247,0.0,0.0,96,0.00,,,0.00,WUHU21623XXSP,2013-02-16 10:00:00,
2013-02-16 05:05:00,30.2,29.2,29.92,WSW,247,0.0,0.0,96,0.00,,,0.00,WUHU21623XXSP,2013-02-16 10:05:00,
2013-02-16 05:10:00,30.0,29.0,29.92,WSW,247,0.0,0.0,96,0.00,,,0.00,WUHU21623XXSP,2013-02-16 10:10:00,
2013-02-16 05:15:00,30.0,29.4,29.93,WSW,247,0.0,0.0,98,0.00,,,0.00,WUHU21623XXSP,2013-02-16 10:15:00,
2013-02-16 05:20:00,30.0,29.4,29.92,WSW,247,0.0,0.0,98,0.00,,,0.00,WUHU21623XXSP,2013-02-16 10:20:00,
2013-02-16 05:25:00,29.8,29.2,29.92,WSW,247,0.0,0.0,98,0.00,,,0.00,WUHU21623XXSP,2013-02-16 10:25:00,
2013-02-16 05:30:00,29.8,29.2,29.92,WSW,247,0.0,0.0,98,0.00,,,0.00,WUHU21623XXSP,2013-02-16 10:30:00,
2013-02-16 05:35:00,29.8,29.2,29.93,WSW,247,0.0,0.0,98,0.00,,,0.00,WUHU21623XXSP,2013-02-16 10:35:00,
2013-02-16 05:40:00,29.8,29.2,29.93,WSW,247,0.0,0.0,98,0.00,,,0.00,WUHU21623XXSP,2013-02-16 10:40:00,
2013-02-16 05:45:00,29.8,29.2,29.93,WSW,247,0.0,0.0,98,0.00,,,0.00,WUHU21623XXSP,2013-02-16 10:45:00,
2013-02-16 05:50:00,29.8,29.5,29.92,WSW,247,0.0,0.0,99,0.00,,,0.00,WUHU21623XXSP,2013-02-16 10:50:00,
2013-02-16 05:55:00,29.8,29.5,29.92,WSW,247,0.0,0.0,99,0.00,,,0.00,WUHU21623XXSP,2013-02-16 10:55:00,
2013-02-16 06:00:00,29.8,29.5,29.92,WSW,247,0.0,0.0,99,0.00,,,0.00,WUHU21623XXSP,2013-02-16 11:00:00,
2013-02-16 06:05:00,29.7,29.4,29.93,SW,225,0.0,0.0,99,0.00,,,0.00,WUHU21623XXSP,2013-02-16 11:05:00,
2013-02-16 06:10:00,29.7,29.4,29.92,SW,225,0.0,0.0,99,0.00,,,0.00,WUHU21623XXSP,2013-02-16 11:10:00,
2013-02-16 06:15:00,29.7,29.4,29.91,SW,225,0.0,0.0,99,0.00,,,0.00,WUHU21623XXSP,2013-02-16 11:15:00,
2013-02-16 06:20:00,29.5,29.2,29.91,SW,225,0.0,0.0,99,0.00,,,0.00,WUHU21623XXSP,2013-02-16 11:20:00,
2013-02-16 06:25:00,29.3,29.0,29.91,SW,225,0.0,0.0,99,0.00,,,0.00,WUHU21623XXSP,2013-02-16 11:25:00,
2013-02-16 06:30:00,29.3,29.0,29.91,SW,225,0.0,0.0,99,0.00,,,0.00,WUHU21623XXSP,2013-02-16 11:30:00,
2013-02-16 06:35:00,29.1,28.8,29.91,SW,225,0.0,0.0,99,0.00,,,0.00,WUHU21623XXSP,2013-02-16 11:35:00,
2013-02-16 06:40:00,28.9,28.6,29.92,SW,225,0.0,0.0,99,0.00,,,0.00,WUHU21623XXSP,2013-02-16 11:40:00,
2013-02-16 06:45:00,28.6,28.3,29.91,SW,225,0.0,0.0,99,0.00,,,0.00,WUHU21623XXSP,2013-02-16 11:45:00,
2013-02-16 06:50:00,28.8,28.5,29.91,SW,225,0.0,0.0,99,0.00,,,0.00,WUHU21623XXSP,2013-02-16 11:50:00,
2013-02-16 06:55:00,28.6,28.3,29.91,SW,225,0.0,0.0,99,0.00,,,0.00,WUHU21623XXSP,2013-02-16 11:55:00,
2013-02-16 07:00:00,28.4,28.1,29.91,SW,225,0.0,0.0,99,0.00,,,0.00,WUHU21623XXSP,2013-02-16 12:00:00,
2013-02-16 07:05:00,28.2,27.9,29.91,SW,225,0.0,0.0,99,0.00,,,0.00,WUHU21623XXSP,2013-02-16 12:05:00,
2013-02-16 07:10:00,28.0,28.0,29.91,SW,225,0.0,0.0,100,0.00,,,0.00,WUHU21623XXSP,2013-02-16 12:10:00,
2013-02-16 07:15:00,28.0,28.0,29.91,SW,225,0.0,0.0,100,0.00,,,0.00,WUHU21623XXSP,2013-02-16 12:15:00,
2013-02-16 07:20:00,28.0,28.0,29.91,SW,225,0.0,0.0,100,0.00,,,0.00,WUHU21623XXSP,2013-02-16 12:20:00,
2013-02-16 07:25:00,28.0,28.0,29.91,SW,225,0.0,0.0,100,0.00,,,0.00,WUHU21623XXSP,2013-02-16 12:25:00,
2013-02-16 07:30:00,28.2,28.2,29.91,SW,225,0.0,0.0,100,0.00,,,0.00,WUHU21623XXSP,2013-02-16 12:30:00,
2013-02-16 07:35:00,28.4,28.4,29.92,SW,225,0.0,0.0,100,0.00,,,0.00,WUHU21623XXSP,2013-02-16 12:35:00,
2013-02-16 07:40:00,28.6,28.6,29.91,SW,225,0.0,0.0,100,0.00,,,0.00,WUHU21623XXSP,2013-02-16 12:40:00,
2013-02-16 07:45:00,28.8,28.8,29.91,SW,225,0.0,0.0,100,0.00,,,0.00,WUHU21623XXSP,2013-02-16 12:45:00,
2013-02-16 07:50:00,28.9,28.9,29.91,SW,225,0.0,0.0,100,0.00,,,0.00,WUHU21623XXSP,2013-02-16 12:50:00,
2013-02-16 07:55:00,29.3,29.3,29.92,SW,225,0.0,0.0,100,0.00,,,0.00,WUHU21623XXSP,2013-02-16 12:55:00,
2013-02-16 08:00:00,29.7,29.7,29.92,SW,225,0.0,0.0,100,0.00,,,0.00,WUHU21623XXSP,2013-02-16 13:00:00,
2013-02-16 08:05:00,29.8,29.8,29.91,SW,225,0.0,0.0,100,0.00,,,0.00,WUHU21623XXSP,2013-02-16 13:05:00,
2013-02-16 08:10:00,30.2,30.2,29.91,SW,225,0.0,0.0,100,0.00,,,0.00,WUHU21623XXSP,2013-02-16 13:10:00,
2013-02-16 08:17:00,30.4,30.4,29.91,SW,225,0.0,0.0,100,0.00,,,0.00,WUHU21623XXSP,2013-02-16 13:17:00,
2013-02-16 08:22:00,30.6,30.6,29.91,SW,225,0.0,0.0,100,0.00,,,0.00,WUHU21623XXSP,2013-02-16 13:22:00,
2013-02-16 08:28:00,30.9,30.9,29.91,SW,225,0.0,3.7,100,0.00,,,0.00,WUHU21623XXSP,2013-02-16 13:28:00,
2013-02-16 08:33:00,31.1,31.1,29.91,SW,225,0.0,3.7,100,0.00,,,0.00,WUHU21623XXSP,2013-02-16 13:33:00,
2013-02-16 08:38:00,31.5,31.5,29.91,SW,225,0.0,0.0,100,0.00,,,0.00,WUHU21623XXSP,2013-02-16 13:38:00,
2013-02-16 08:43:00,31.3,31.3,29.92,SW,225,0.0,0.0,100,0.00,,,0.00,WUHU21623XXSP,2013-02-16 13:43:00,
2013-02-16 08:48:00,31.6,31.3,29.91,SW,225,1.7,2.6,99,0.00,,,0.00,WUHU21623XXSP,2013-02-16 13:48:00,
2013-02-16 08:53:00,32.0,31.7,29.91,SW,225,0.0,4.1,99,0.00,,,0.00,WUHU21623XXSP,2013-02-16 13:53:00,
2013-02-16 08:58:00,32.4,32.1,29.91,SW,225,4.1,4.4,99,0.00,,,0.00,WUHU21623XXSP,2013-02-16 13:58:00,
2013-02-16 09:03:00,32.7,32.0,29.91,SW,225,1.0,7.7,98,0.00,,,0.00,WUHU21623XXSP,2013-02-16 14:03:00,
2013-02-16 09:08:00,32.7,31.6,29.91,WSW,247,0.0,7.7,96,0.00,,,0.00,WUHU21623XXSP,2013-02-16 14:08:00,
2013-02-16 09:13:00,32.9,31.4,29.91,SW,225,0.0,6.3,95,0.00,,,0.00,WUHU21623XXSP,2013-02-16 14:13:00,
2013-02-16 09:18:00,33.3,31.8,29.91,WSW,247,1.0,5.2,95,0.00,,,0.00,WUHU21623XXSP,2013-02-16 14:18:00,
2013-02-16 09:23:00,33.3,31.4,29.91,SE,135,0.0,5.8,93,0.00,,,0.00,WUHU21623XXSP,2013-02-16 14:23:00,
2013-02-16 09:28:00,33.3,31.0,29.91,SW,225,0.0,5.8,92,0.00,,,0.00,WUHU21623XXSP,2013-02-16 14:28:00,
2013-02-16 09:33:00,33.4,31.1,29.90,SW,225,2.5,5.1,92,0.00,,,0.00,WUHU21623XXSP,2013-02-16 14:33:00,
2013-02-16 09:38:00,33.4,30.3,29.90,WSW,247,1.9,6.8,89,0.00,,,0.00,WUHU21623XXSP,2013-02-16 14:38:00,
2013-02-16 09:43:00,34.0,30.9,29.90,WSW,247,3.6,8.8,89,0.00,,,0.00,WUHU21623XXSP,2013-02-16 14:43:00,
2013-02-16 09:48:00,34.3,30.8,29.90,SSW,202,7.5,8.8,87,0.00,,,0.00,WUHU21623XXSP,2013-02-16 14:48:00,
2013-02-16 09:53:00,34.5,30.6,29.90,SW,225,2.4,8.1,86,0.00,,,0.00,WUHU21623XXSP,2013-02-16 14:53:00,
2013-02-16 09:58:00,34.7,30.3,29.90,West,270,1.7,7.9,84,0.00,,,0.00,WUHU21623XXSP,2013-02-16 14:58:00,
2013-02-16 10:03:00,34.7,30.3,29.90,West,270,3.0,8.4,84,0.00,,,0.00,WUHU21623XXSP,2013-02-16 15:03:00,
2013-02-16 10:08:00,34.7,29.9,29.90,SW,225,3.9,8.4,83,0.00,,,0.00,WUHU21623XXSP,2013-02-16 15:08:00,
2013-02-16 10:13:00,34.7,29.5,29.89,WSW,247,0.7,6.8,81,0.00,,,0.00,WUHU21623XXSP,2013-02-16 15:13:00,
2013-02-16 10:18:00,34.7,29.5,29.89,SSW,202,4.5,7.2,81,0.00,,,0.00,WUHU21623XXSP,2013-02-16 15:18:00,
2013-02-16 10:23:00,34.7,29.0,29.89,WSW,247,0.0,8.1,80,0.00,,,0.00,WUHU21623XXSP,2013-02-16 15:23:00,
2013-02-16 10:28:00,35.1,29.0,29.89,SSW,202,1.2,9.5,78,0.00,,,0.00,WUHU21623XXSP,2013-02-16 15:28:00,
2013-02-16 10:33:00,35.2,29.1,29.89,North,0,0.6,9.5,78,0.00,,,0.00,WUHU21623XXSP,2013-02-16 15:33:00,
2013-02-16 10:38:00,35.6,29.4,29.89,SSW,202,5.9,9.9,78,0.00,,,0.00,WUHU21623XXSP,2013-02-16 15:38:00,
2013-02-16 10:45:00,35.8,29.2,29.89,SW,225,2.6,10.0,77,0.00,,,0.00,WUHU21623XXSP,2013-02-16 15:45:00,
2013-02-16 10:50:00,35.8,29.2,29.89,SW,225,4.5,9.6,77,0.00,,,0.00,WUHU21623XXSP,2013-02-16 15:50:00,
2013-02-16 10:55:00,35.8,28.7,29.89,WSW,247,1.1,9.6,75,0.00,,,0.00,WUHU21623XXSP,2013-02-16 15:55:00,
2013-02-16 11:00:00,35.8,28.7,29.89,West,270,5.7,8.2,75,0.00,,,0.00,WUHU21623XXSP,2013-02-16 16:00:00,
2013-02-16 11:05:00,35.4,27.8,29.89,SW,225,1.2,8.2,74,0.00,,,0.00,WUHU21623XXSP,2013-02-16 16:05:00,
2013-02-16 11:10:00,35.4,27.8,29.89,WSW,247,3.4,8.6,74,0.00,,,0.00,WUHU21623XXSP,2013-02-16 16:10:00,
2013-02-16 11:15:00,35.2,27.1,29.89,SW,225,4.2,10.6,72,0.00,,,0.00,WUHU21623XXSP,2013-02-16 16:15:00,
2013-02-16 11:20:00,35.1,27.0,29.89,SSW,202,5.3,10.6,72,0.00,,,0.00,WUHU21623XXSP,2013-02-16 16:20:00,
2013-02-16 11:25:00,35.1,26.5,29.89,WNW,292,0.0,8.7,71,0.00,,,0.00,WUHU21623XXSP,2013-02-16 16:25:00,
2013-02-16 11:30:00,35.1,26.5,29.89,SSW,202,6.3,9.3,71,0.00,,,0.00,WUHU21623XXSP,2013-02-16 16:30:00,
2013-02-16 11:35:00,34.9,26.3,29.89,SSW,202,3.4,9.3,71,0.00,,,0.00,WUHU21623XXSP,2013-02-16 16:35:00,
2013-02-16 11:40:00,35.2,26.6,29.89,WSW,247,1.8,8.2,71,0.00,,,0.00,WUHU21623XXSP,2013-02-16 16:40:00,
2013-02-16 11:45:00,35.4,26.8,29.89,SW,225,3.4,8.2,71,0.00,,,0.00,WUHU21623XXSP,2013-02-16 16:45:00,
2013-02-16 11:50:00,35.8,27.2,29.89,SW,225,5.7,8.6,71,0.00,,,0.00,WUHU21623XXSP,2013-02-16 16:50:00,
2013-02-16 11:55:00,35.8,26.7,29.88,West,270,6.0,10.0,69,0.00,,,0.00,WUHU21623XXSP,2013-02-16 16:55:00,
2013-02-16 12:00:00,35.8,26.2,29.88,SW,225,3.8,11.3,68,0.00,,,0.00,WUHU21623XXSP,2013-02-16 17:00:00,
2013-02-16 12:05:00,35.6,26.0,29.87,SSW,202,3.6,11.7,68,0.00,,,0.00,WUHU21623XXSP,2013-02-16 17:05:00,
2013-02-16 12:10:00,35.2,25.0,29.87,West,270,5.0,11.7,66,0.00,,,0.00,WUHU21623XXSP,2013-02-16 17:10:00,
2013-02-16 12:15:00,35.2,25.0,29.87,SW,225,6.9,10.1,66,0.00,,,0.00,WUHU21623XXSP,2013-02-16 17:15:00,
2013-02-16 12:20:00,35.2,25.0,29.86,WSW,247,4.0,9.6,66,0.00,,,0.00,WUHU21623XXSP,2013-02-16 17:20:00,
2013-02-16 12:25:00,35.2,25.0,29.87,WSW,247,3.2,10.4,66,0.00,,,0.00,WUHU21623XXSP,2013-02-16 17:25:00,
2013-02-16 12:30:00,35.6,25.4,29.86,WSW,247,0.8,11.2,66,0.00,,,0.00,WUHU21623XXSP,2013-02-16 17:30:00,
2013-02-16 12:35:00,36.0,25.8,29.86,WSW,247,2.5,11.2,66,0.00,,,0.00,WUHU21623XXSP,2013-02-16 17:35:00,
2013-02-16 12:40:00,36.0,25.3,29.86,WSW,247,3.6,10.9,65,0.00,,,0.00,WUHU21623XXSP,2013-02-16 17:40:00,
2013-02-16 12:45:00,36.0,24.7,29.86,SSW,202,3.0,12.1,63,0.00,,,0.00,WUHU21623XXSP,2013-02-16 17:45:00,
2013-02-16 12:50:00,36.1,24.8,29.86,SSE,157,3.3,14.0,63,0.00,,,0.00,WUHU21623XXSP,2013-02-16 17:50:00,
2013-02-16 12:55:00,35.8,24.5,29.86,SW,225,5.0,14.0,63,0.00,,,0.00,WUHU21623XXSP,2013-02-16 17:55:00,
2013-02-16 13:00:00,35.8,24.5,29.86,West,270,1.9,12.7,63,0.00,,,0.00,WUHU21623XXSP,2013-02-16 18:00:00,
2013-02-16 13:05:00,35.8,24.5,29.87,South,180,1.3,12.7,63,0.00,,,0.00,WUHU21623XXSP,2013-02-16 18:05:00,
2013-02-16 13:10:00,35.4,24.1,29.87,WSW,247,3.8,5.8,63,0.00,,,0.00,WUHU21623XXSP,2013-02-16 18:10:00,
2013-02-16 13:15:00,35.8,24.5,29.86,SW,225,0.0,6.5,63,0.00,,,0.00,WUHU21623XXSP,2013-02-16 18:15:00,
2013-02-16 13:20:00,36.0,24.7,29.86,WSW,247,2.0,8.6,63,0.00,,,0.00,WUHU21623XXSP,2013-02-16 18:20:00,
2013-02-16 13:25:00,36.3,25.0,29.86,SW,225,6.1,9.2,63,0.00,,,0.00,WUHU21623XXSP,2013-02-16 18:25:00,
2013-02-16 13:30:00,36.5,25.2,29.86,SE,135,1.9,9.2,63,0.00,,,0.00,WUHU21623XXSP,2013-02-16 18:30:00,
2013-02-16 13:35:00,36.1,24.2,29.86,SW,225,6.9,8.8,62,0.00,,,0.00,WUHU21623XXSP,2013-02-16 18:35:00,
2013-02-16 13:40:00,36.0,24.1,29.86,West,270,1.2,8.1,62,0.00,,,0.00,WUHU21623XXSP,2013-02-16 18:40:00,
2013-02-16 13:45:00,35.8,23.9,29.86,WSW,247,1.3,8.4,62,0.00,,,0.00,WUHU21623XXSP,2013-02-16 18:45:00,
2013-02-16 13:50:00,35.8,23.9,29.86,SSW,202,0.0,8.4,62,0.00,,,0.00,WUHU21623XXSP,2013-02-16 18:50:00,
2013-02-16 13:55:00,36.0,24.1,29.86,West,270,2.7,8.4,62,0.00,,,0.00,WUHU21623XXSP,2013-02-16 18:55:00,
2013-02-16 14:00:00,36.0,24.1,29.86,WSW,247,6.2,9.4,62,0.00,,,0.00,WUHU21623XXSP,2013-02-16 19:00:00,
2013-02-16 14:05:00,35.8,23.3,29.86,WSW,247,6.4,9.4,60,0.00,,,0.00,WUHU21623XXSP,2013-02-16 19:05:00,
2013-02-16 14:10:00,35.4,22.9,29.86,SW,225,0.0,8.4,60,0.00,,,0.00,WUHU21623XXSP,2013-02-16 19:10:00,
2013-02-16 14:15:00,35.2,22.8,29.85,West,270,5.0,10.4,60,0.00,,,0.00,WUHU21623XXSP,2013-02-16 19:15:00,
2013-02-16 14:20:00,35.6,23.1,29.86,SSW,202,2.3,10.4,60,0.00,,,0.00,WUHU21623XXSP,2013-02-16 19:20:00,
2013-02-16 14:25:00,35.8,23.3,29.86,WSW,247,5.8,9.1,60,0.00,,,0.00,WUHU21623XXSP,2013-02-16 19:25:00,
2013-02-16 14:30:00,35.8,22.1,29.86,West,270,4.8,9.1,57,0.00,,,0.00,WUHU21623XXSP,2013-02-16 19:30:00,
2013-02-16 14:35:00,35.6,22.5,29.86,WNW,292,3.2,9.0,59,0.00,,,0.00,WUHU21623XXSP,2013-02-16 19:35:00,
2013-02-16 14:40:00,35.2,22.1,29.85,WSW,247,5.2,9.0,59,0.00,,,0.00,WUHU21623XXSP,2013-02-16 19:40:00,
2013-02-16 14:45:00,35.6,22.5,29.85,SW,225,4.7,8.3,59,0.00,,,0.00,WUHU21623XXSP,2013-02-16 19:45:00,
2013-02-16 14:50:00,35.8,22.1,29.85,WSW,247,4.7,12.5,57,0.00,,,0.00,WUHU21623XXSP,2013-02-16 19:50:00,
2013-02-16 14:55:00,35.8,22.7,29.86,SW,225,6.0,12.5,59,0.00,,,0.00,WUHU21623XXSP,2013-02-16 19:55:00,
2013-02-16 15:00:00,35.8,22.1,29.85,West,270,3.3,10.3,57,0.00,,,0.00,WUHU21623XXSP,2013-02-16 20:00:00,
2013-02-16 15:05:00,35.8,21.4,29.85,West,270,5.6,9.2,56,0.00,,,0.00,WUHU21623XXSP,2013-02-16 20:05:00,
2013-02-16 15:10:00,35.8,21.4,29.85,WSW,247,5.6,9.9,56,0.00,,,0.00,WUHU21623XXSP,2013-02-16 20:10:00,
2013-02-16 15:15:00,36.1,21.7,29.85,SW,225,1.5,9.9,56,0.00,,,0.00,WUHU21623XXSP,2013-02-16 20:15:00,
2013-02-16 15:20:00,36.5,22.1,29.86,SW,225,2.9,10.0,56,0.00,,,0.00,WUHU21623XXSP,2013-02-16 20:20:00,
2013-02-16 15:25:00,36.9,22.5,29.85,SW,225,2.3,10.1,56,0.00,,,0.00,WUHU21623XXSP,2013-02-16 20:25:00,
2013-02-16 15:30:00,37.4,22.9,29.85,SW,225,6.0,12.5,56,0.00,,,0.00,WUHU21623XXSP,2013-02-16 20:30:00,
2013-02-16 15:35:00,37.6,22.4,29.85,WNW,292,2.8,12.5,54,0.00,,,0.00,WUHU21623XXSP,2013-02-16 20:35:00,
2013-02-16 15:40:00,37.6,21.8,29.85,WSW,247,6.0,11.1,53,0.00,,,0.00,WUHU21623XXSP,2013-02-16 20:40:00,
2013-02-16 15:45:00,37.6,21.8,29.85,SSW,202,8.4,11.1,53,0.00,,,0.00,WUHU21623XXSP,2013-02-16 20:45:00,
2013-02-16 15:50:00,37.2,20.0,29.85,SW,225,4.9,9.3,50,0.00,,,0.00,WUHU21623XXSP,2013-02-16 20:50:00,
2013-02-16 15:55:00,36.9,18.9,29.85,West,270,3.5,13.2,48,0.00,,,0.00,WUHU21623XXSP,2013-02-16 20:55:00,
2013-02-16 16:00:00,36.9,18.9,29.85,WNW,292,4.2,13.2,48,0.00,,,0.00,WUHU21623XXSP,2013-02-16 21:00:00,
2013-02-16 16:05:00,36.9,18.9,29.85,West,270,2.9,9.7,48,0.00,,,0.00,WUHU21623XXSP,2013-02-16 21:05:00,
2013-02-16 16:10:00,36.9,18.9,29.85,SSW,202,2.4,9.7,48,0.00,,,0.00,WUHU21623XXSP,2013-02-16 21:10:00,
2013-02-16 16:15:00,36.1,15.0,29.85,West,270,3.0,8.9,42,0.00,,,0.00,WUHU21623XXSP,2013-02-16 21:15:00,
2013-02-16 16:20:00,35.2,12.5,29.85,West,270,3.0,8.7,39,0.00,,,0.00,WUHU21623XXSP,2013-02-16 21:20:00,
2013-02-16 16:25:00,34.9,11.3,29.84,West,270,0.6,8.7,38,0.00,,,0.00,WUHU21623XXSP,2013-02-16 21:25:00,
2013-02-16 16:30:00,34.7,15.4,29.84,WSW,247,4.1,7.2,45,0.00,,,0.00,WUHU21623XXSP,2013-02-16 21:30:00,
2013-02-16 16:35:00,34.3,15.8,29.84,WSW,247,5.5,7.2,47,0.00,,,0.00,WUHU21623XXSP,2013-02-16 21:35:00,
2013-02-16 16:40:00,34.0,14.7,29.84,WSW,247,0.0,8.2,45,0.00,,,0.00,WUHU21623XXSP,2013-02-16 21:40:00,
2013-02-16 16:45:00,33.4,10.9,29.84,West,270,2.3,8.9,39,0.00,,,0.00,WUHU21623XXSP,2013-02-16 21:45:00,
2013-02-16 16:50:00,32.9,13.7,29.84,West,270,3.5,8.9,45,0.00,,,0.00,WUHU21623XXSP,2013-02-16 21:50:00,
2013-02-16 16:55:00,32.5,12.6,29.84,WSW,247,4.5,7.7,44,0.00,,,0.00,WUHU21623XXSP,2013-02-16 21:55:00,
2013-02-16 17:00:00,32.4,14.8,29.84,SSW,202,7.9,8.1,48,0.00,,,0.00,WUHU21623XXSP,2013-02-16 22:00:00,
2013-02-16 17:05:00,32.0,14.4,29.84,West,270,4.1,9.0,48,0.00,,,0.00,WUHU21623XXSP,2013-02-16 22:05:00,
2013-02-16 17:10:00,31.6,14.8,29.84,West,270,1.5,9.0,50,0.00,,,0.00,WUHU21623XXSP,2013-02-16 22:10:00,
2013-02-16 17:15:00,31.3,15.2,29.84,West,270,2.5,6.9,51,0.00,,,0.00,WUHU21623XXSP,2013-02-16 22:15:00,
2013-02-16 17:20:00,30.9,13.4,29.83,WSW,247,2.1,6.9,48,0.00,,,0.00,WUHU21623XXSP,2013-02-16 22:20:00,
2013-02-16 17:25:00,30.7,13.9,29.84,SW,225,2.1,5.8,50,0.00,,,0.00,WUHU21623XXSP,2013-02-16 22:25:00,
2013-02-16 17:30:00,30.6,15.9,29.84,WSW,247,2.3,9.7,54,0.00,,,0.00,WUHU21623XXSP,2013-02-16 22:30:00,
2013-02-16 17:35:00,30.4,15.7,29.85,SW,225,4.9,9.7,54,0.00,,,0.00,WUHU21623XXSP,2013-02-16 22:35:00,
2013-02-16 17:40:00,30.4,15.7,29.84,WSW,247,2.6,7.6,54,0.00,,,0.00,WUHU21623XXSP,2013-02-16 22:40:00,
2013-02-16 17:45:00,30.0,15.3,29.84,WSW,247,3.7,8.1,54,0.00,,,0.00,WUHU21623XXSP,2013-02-16 22:45:00,
2013-02-16 17:50:00,29.8,15.2,29.84,SSW,202,5.0,8.2,54,0.00,,,0.00,WUHU21623XXSP,2013-02-16 22:50:00,
2013-02-16 17:55:00,29.5,14.9,29.84,West,270,4.2,9.4,54,0.00,,,0.00,WUHU21623XXSP,2013-02-16 22:55:00,
2013-02-16 18:00:00,29.3,14.0,29.84,WSW,247,3.6,10.5,53,0.00,,,0.00,WUHU21623XXSP,2013-02-16 23:00:00,
2013-02-16 18:05:00,29.3,14.0,29.84,WSW,247,2.7,10.5,53,0.00,,,0.00,WUHU21623XXSP,2013-02-16 23:05:00,
2013-02-16 18:10:00,29.3,14.0,29.84,WSW,247,4.3,10.3,53,0.00,,,0.00,WUHU21623XXSP,2013-02-16 23:10:00,
2013-02-16 18:15:00,29.1,13.8,29.84,West,270,9.4,11.5,53,0.00,,,0.00,WUHU21623XXSP,2013-02-16 23:15:00,
2013-02-16 18:20:00,28.9,13.7,29.84,WSW,247,5.0,11.5,53,0.00,,,0.00,WUHU21623XXSP,2013-02-16 23:20:00,
2013-02-16 18:25:00,28.8,13.6,29.84,West,270,1.7,8.7,53,0.00,,,0.00,WUHU21623XXSP,2013-02-16 23:25:00,
2013-02-16 18:30:00,28.6,13.4,29.84,West,270,4.1,7.3,53,0.00,,,0.00,WUHU21623XXSP,2013-02-16 23:30:00,
2013-02-16 18:37:00,28.6,13.4,29.84,SW,225,2.2,8.2,53,0.00,,,0.00,WUHU21623XXSP,2013-02-16 23:37:00,
2013-02-16 18:42:00,28.4,13.2,29.84,WSW,247,4.3,8.5,53,0.00,,,0.00,WUHU21623XXSP,2013-02-16 23:42:00,
2013-02-16 18:47:00,28.2,13.0,29.84,SW,225,3.7,10.2,53,0.00,,,0.00,WUHU21623XXSP,2013-02-16 23:47:00,
2013-02-16 18:52:00,28.0,12.1,29.84,West,270,2.2,10.2,51,0.00,,,0.00,WUHU21623XXSP,2013-02-16 23:52:00,
2013-02-16 18:57:00,28.0,12.1,29.84,WSW,247,3.4,9.9,51,0.00,,,0.00,WUHU21623XXSP,2013-02-16 23:57:00,
2013-02-16 19:02:00,27.9,11.4,29.84,SW,225,0.9,9.0,50,0.00,,,0.00,WUHU21623XXSP,2013-02-17 00:02:00,
2013-02-16 19:08:00,27.9,11.4,29.84,WNW,292,2.0,10.8,50,0.00,,,0.00,WUHU21623XXSP,2013-02-17 00:08:00,
2013-02-16 19:13:00,27.7,10.5,29.84,West,270,5.3,11.1,48,0.00,,,0.00,WUHU21623XXSP,2013-02-17 00:13:00,
2013-02-16 19:20:00,27.5,9.5,29.84,West,270,4.4,11.1,47,0.00,,,0.00,WUHU21623XXSP,2013-02-17 00:20:00,
2013-02-16 19:25:00,27.3,9.4,29.84,West,270,6.0,10.7,47,0.00,,,0.00,WUHU21623XXSP,2013-02-17 00:25:00,
2013-02-16 19:30:00,27.1,8.4,29.84,West,270,2.0,11.4,45,0.00,,,0.00,WUHU21623XXSP,2013-02-17 00:30:00,
2013-02-16 19:35:00,27.0,5.9,29.84,West,270,6.3,12.6,41,0.00,,,0.00,WUHU21623XXSP,2013-02-17 00:35:00,
2013-02-16 19:40:00,26.8,6.6,29.84,SW,225,4.1,12.6,42,0.00,,,0.00,WUHU21623XXSP,2013-02-17 00:40:00,
2013-02-16 19:45:00,26.8,4.1,29.84,SSW,202,8.9,11.7,38,0.00,,,0.00,WUHU21623XXSP,2013-02-17 00:45:00,
2013-02-16 19:50:00,26.4,1.9,29.84,WNW,292,2.4,11.7,35,0.00,,,0.00,WUHU21623XXSP,2013-02-17 00:50:00,
2013-02-16 19:55:00,26.2,0.8,29.84,West,270,2.0,10.4,33,0.00,,,0.00,WUHU21623XXSP,2013-02-17 00:55:00,
2013-02-16 20:00:00,26.2,0.8,29.84,WSW,247,1.8,14.3,33,0.00,,,0.00,WUHU21623XXSP,2013-02-17 01:00:00,
2013-02-16 20:05:00,26.1,-0.3,29.84,WSW,247,5.5,14.3,32,0.00,,,0.00,WUHU21623XXSP,2013-02-17 01:05:00,
2013-02-16 20:10:00,26.1,-0.3,29.84,West,270,2.0,7.3,32,0.00,,,0.00,WUHU21623XXSP,2013-02-17 01:10:00,
2013-02-16 20:15:00,25.9,-1.5,29.84,West,270,1.8,9.0,30,0.00,,,0.00,WUHU21623XXSP,2013-02-17 01:15:00,
2013-02-16 20:20:00,25.9,-0.5,29.83,WSW,247,1.6,9.0,32,0.00,,,0.00,WUHU21623XXSP,2013-02-17 01:20:00,
2013-02-16 20:25:00,25.7,-1.7,29.83,SW,225,1.6,12.8,30,0.00,,,0.00,WUHU21623XXSP,2013-02-17 01:25:00,
2013-02-16 20:30:00,25.5,-1.9,29.83,West,270,2.6,12.8,30,0.00,,,0.00,WUHU21623XXSP,2013-02-17 01:30:00,
2013-02-16 20:35:00,25.5,-0.8,29.83,WNW,292,2.4,10.2,32,0.00,,,0.00,WUHU21623XXSP,2013-02-17 01:35:00,
2013-02-16 20:40:00,25.5,0.1,29.83,WNW,292,1.4,10.8,33,0.00,,,0.00,WUHU21623XXSP,2013-02-17 01:40:00,
2013-02-16 20:45:00,25.3,-2.0,29.83,West,270,1.7,10.8,30,0.00,,,0.00,WUHU21623XXSP,2013-02-17 01:45:00,
2013-02-16 20:50:00,25.2,-2.1,29.83,SW,225,0.0,9.3,30,0.00,,,0.00,WUHU21623XXSP,2013-02-17 01:50:00,
2013-02-16 20:55:00,25.2,-2.1,29.83,West,270,0.0,7.0,30,0.00,,,0.00,WUHU21623XXSP,2013-02-17 01:55:00,
2013-02-16 21:00:00,25.0,-2.3,29.83,SSW,202,1.0,5.3,30,0.00,,,0.00,WUHU21623XXSP,2013-02-17 02:00:00,
2013-02-16 21:05:00,25.0,-2.3,29.83,SW,225,2.5,5.3,30,0.00,,,0.00,WUHU21623XXSP,2013-02-17 02:05:00,
2013-02-16 21:10:00,25.0,-2.3,29.82,West,270,2.3,6.4,30,0.00,,,0.00,WUHU21623XXSP,2013-02-17 02:10:00,
2013-02-16 21:15:00,25.0,-2.3,29.81,SW,225,2.9,6.4,30,0.00,,,0.00,WUHU21623XXSP,2013-02-17 02:15:00,
2013-02-16 21:20:00,24.8,-2.5,29.81,West,270,0.0,9.9,30,0.00,,,0.00,WUHU21623XXSP,2013-02-17 02:20:00,
2013-02-16 21:25:00,24.8,-2.5,29.81,SSW,202,7.8,10.4,30,0.00,,,0.00,WUHU21623XXSP,2013-02-17 02:25:00,
2013-02-16 21:30:00,24.4,-2.8,29.81,SW,225,1.8,11.2,30,0.00,,,0.00,WUHU21623XXSP,2013-02-17 02:30:00,
2013-02-16 21:35:00,24.4,-2.8,29.81,WNW,292,5.0,11.2,30,0.00,,,0.00,WUHU21623XXSP,2013-02-17 02:35:00,
2013-02-16 21:40:00,24.3,-2.9,29.81,SW,225,2.0,8.8,30,0.00,,,0.00,WUHU21623XXSP,2013-02-17 02:40:00,
2013-02-16 21:45:00,24.3,-2.9,29.81,SW,225,6.9,9.2,30,0.00,,,0.00,WUHU21623XXSP,2013-02-17 02:45:00,
2013-02-16 21:50:00,24.3,-2.9,29.81,West,270,3.7,10.1,30,0.00,,,0.00,WUHU21623XXSP,2013-02-17 02:50:00,
2013-02-16 21:55:00,24.1,-3.1,29.81,WSW,247,2.5,10.1,30,0.00,,,0.00,WUHU21623XXSP,2013-02-17 02:55:00,
2013-02-16 22:00:00,24.1,-3.1,29.81,West,270,2.9,9.0,30,0.00,,,0.00,WUHU21623XXSP,2013-02-17 03:00:00,
2013-02-16 22:05:00,23.9,-3.3,29.80,West,270,0.8,8.3,30,0.00,,,0.00,WUHU21623XXSP,2013-02-17 03:05:00,
2013-02-16 22:10:00,23.9,-3.3,29.79,West,270,2.1,7.8,30,0.00,,,0.00,WUHU21623XXSP,2013-02-17 03:10:00,
2013-02-16 22:15:00,23.7,-3.4,29.79,WSW,247,2.4,8.7,30,0.00,,,0.00,WUHU21623XXSP,2013-02-17 03:15:00,
2013-02-16 22:20:00,23.7,-3.4,29.79,West,270,2.7,10.2,30,0.00,,,0.00,WUHU21623XXSP,2013-02-17 03:20:00,
2013-02-16 22:25:00,23.7,-3.4,29.79,SW,225,6.5,10.8,30,0.00,,,0.00,WUHU21623XXSP,2013-02-17 03:25:00,
2013-02-16 22:30:00,23.5,-3.6,29.79,West,270,4.9,10.8,30,0.00,,,0.00,WUHU21623XXSP,2013-02-17 03:30:00,
2013-02-16 22:35:00,23.5,-3.6,29.79,SW,225,3.0,9.8,30,0.00,,,0.00,WUHU21623XXSP,2013-02-17 03:35:00,
2013-02-16 22:40:00,23.4,-3.7,29.79,South,180,0.0,7.1,30,0.00,,,0.00,WUHU21623XXSP,2013-02-17 03:40:00,
2013-02-16 22:45:00,23.4,-3.7,29.79,West,270,1.8,7.8,30,0.00,,,0.00,WUHU21623XXSP,2013-02-17 03:45:00,
2013-02-16 22:50:00,23.4,-3.7,29.79,West,270,1.2,7.8,30,0.00,,,0.00,WUHU21623XXSP,2013-02-17 03:50:00,
2013-02-16 22:57:00,23.2,-3.9,29.78,WNW,292,0.7,7.3,30,0.00,,,0.00,WUHU21623XXSP,2013-02-17 03:57:00,
2013-02-16 23:02:00,23.2,-3.9,29.78,WSW,247,1.2,9.2,30,0.00,,,0.00,WUHU21623XXSP,2013-02-17 04:02:00,
2013-02-16 23:07:00,23.2,-3.9,29.77,WNW,292,5.8,12.5,30,0.00,,,0.00,WUHU21623XXSP,2013-02-17 04:07:00,
2013-02-16 23:12:00,23.2,-3.9,29.77,SW,225,2.3,12.5,30,0.00,,,0.00,WUHU21623XXSP,2013-02-17 04:12:00,
2013-02-16 23:17:00,23.0,-4.0,29.77,WSW,247,5.2,10.7,30,0.00,,,0.00,WUHU21623XXSP,2013-02-17 04:17:00,
2013-02-16 23:22:00,23.2,-3.9,29.76,WSW,247,1.1,10.7,30,0.00,,,0.00,WUHU21623XXSP,2013-02-17 04:22:00,
2013-02-16 23:27:00,23.0,-4.0,29.75,WSW,247,4.0,8.7,30,0.00,,,0.00,WUHU21623XXSP,2013-02-17 04:27:00,
2013-02-16 23:32:00,22.6,-4.4,29.75,WSW,247,3.6,11.0,30,0.00,,,0.00,WUHU21623XXSP,2013-02-17 04:32:00,
2013-02-16 23:37:00,22.6,-4.4,29.75,SW,225,5.3,11.0,30,0.00,,,0.00,WUHU21623XXSP,2013-02-17 04:37:00,
2013-02-16 23:42:00,22.6,-4.4,29.75,SW,225,1.5,11.0,30,0.00,,,0.00,WUHU21623XXSP,2013-02-17 04:42:00,
2013-02-16 23:47:00,22.6,-4.4,29.75,West,270,0.0,11.0,30,0.00,,,0.00,WUHU21623XXSP,2013-02-17 04:47:00,
2013-02-16 23:52:00,22.5,-4.5,29.75,SSW,202,3.0,15.4,30,0.00,,,0.00,WUHU21623XXSP,2013-02-17 04:52:00,
2013-02-16 23:57:00,22.5,-4.5,29.74,SW,225,3.3,15.4,30,0.00,,,0.00,WUHU21623XXSP,2013-02-17 04:57:00,